Time;durP1;ratioP1;P1;durP2;ratioP2;P2;SDS_P1;SDS_P2;PMS_P1;PMS_P2;Temp;Humidity;BMP_temperature;BMP_pressure;BME280_temperature;BME280_humidity;BME280_pressure;Samples;Min_cycle;Max_cycle;Signal;HPM_P1;HPM_P2
2022/04/10 00:01:32;;;;;;;1.40;0.90;;;22.00;51.70;;;;;;5006805;28;20176;-82
2022/04/10 00:03:58;;;;;;;1.10;0.70;;;22.00;51.70;;;;;;5025269;28;20432;-82
2022/04/10 00:06:24;;;;;;;1.30;0.80;;;22.10;51.80;;;;;;5008217;28;20475;-82
2022/04/10 00:08:50;;;;;;;1.37;0.90;;;22.10;51.80;;;;;;5008832;28;20451;-82
2022/04/10 00:11:16;;;;;;;1.60;1.00;;;22.00;51.70;;;;;;5009139;28;20451;-82
2022/04/10 00:13:42;;;;;;;1.10;0.90;;;22.00;51.70;;;;;;5009235;28;20244;-82
2022/04/10 00:16:08;;;;;;;1.73;0.87;;;22.00;51.70;;;;;;5009645;28;20200;-82
2022/04/10 00:21:57;;;;;;;1.40;0.80;;;22.10;51.70;;;;;;5010047;28;20172;-82
2022/04/10 00:24:25;;;;;;;1.27;1.03;;;22.00;51.70;;;;;;5009045;28;20427;-82
2022/04/10 00:26:52;;;;;;;1.40;0.80;;;22.00;51.70;;;;;;5002168;28;20419;-82
2022/04/10 00:29:18;;;;;;;1.83;1.07;;;22.00;51.70;;;;;;5009508;28;20460;-82
2022/04/10 00:31:44;;;;;;;0.97;0.67;;;22.00;51.70;;;;;;5008065;28;20436;-82
2022/04/10 00:34:10;;;;;;;1.43;0.83;;;22.00;51.70;;;;;;5006826;28;20412;-82
2022/04/10 00:36:36;;;;;;;1.50;1.00;;;22.00;51.70;;;;;;5008350;28;20408;-82
2022/04/10 00:39:02;;;;;;;1.50;1.07;;;22.00;51.70;;;;;;5003940;28;20178;-82
2022/04/10 00:41:28;;;;;;;1.80;0.80;;;22.00;51.70;;;;;;5005396;28;20623;-82
2022/04/10 00:44:10;;;;;;;1.20;0.80;;;22.00;51.70;;;;;;5004759;28;20445;-82
2022/04/10 00:46:37;;;;;;;1.00;0.60;;;22.00;51.70;;;;;;5020937;28;20239;-82
2022/04/10 00:49:04;;;;;;;1.00;0.70;;;22.00;51.70;;;;;;5005868;28;20452;-81
2022/04/10 00:51:46;;;;;;;1.60;0.87;;;22.00;51.70;;;;;;5001194;28;20761;-81
2022/04/10 00:54:21;;;;;;;1.23;0.80;;;22.00;51.70;;;;;;5005958;28;20416;-82
2022/04/10 00:56:47;;;;;;;2.17;1.00;;;22.00;51.70;;;;;;5007118;28;20987;-82
2022/04/10 00:59:14;;;;;;;1.30;0.70;;;22.00;51.80;;;;;;5008970;28;20424;-82
2022/04/10 01:01:44;;;;;;;1.77;0.70;;;22.00;51.70;;;;;;5004260;28;20435;-82
2022/04/10 01:04:12;;;;;;;1.10;0.80;;;22.00;51.80;;;;;;4999358;28;20421;-82
2022/04/10 01:06:39;;;;;;;1.67;0.90;;;22.00;51.80;;;;;;5003112;28;20899;-82
2022/04/10 01:09:05;;;;;;;1.20;0.90;;;22.00;51.80;;;;;;4998166;28;20464;-82
2022/04/10 01:11:32;;;;;;;1.07;0.90;;;22.00;51.80;;;;;;5024147;28;20412;-81
2022/04/10 01:13:58;;;;;;;1.13;0.83;;;22.00;51.70;;;;;;4999778;28;20413;-81
2022/04/10 01:16:25;;;;;;;1.37;0.80;;;22.00;51.80;;;;;;5024508;28;20428;-83
2022/04/10 01:18:51;;;;;;;1.30;0.80;;;22.00;51.80;;;;;;5003409;28;20448;-83
2022/04/10 01:21:25;;;;;;;1.57;0.83;;;22.00;51.70;;;;;;5004148;28;20435;-82
2022/04/10 01:23:56;;;;;;;1.20;0.90;;;22.00;51.80;;;;;;4994114;28;20427;-82
2022/04/10 01:26:23;;;;;;;1.13;0.80;;;22.00;51.70;;;;;;4998782;28;20439;-82
2022/04/10 01:29:04;;;;;;;0.90;0.80;;;22.00;51.70;;;;;;4995720;28;20453;-83
2022/04/10 01:31:32;;;;;;;1.10;0.80;;;22.00;51.70;;;;;;5024869;28;20413;-82
2022/04/10 01:34:01;;;;;;;1.30;0.90;;;22.00;51.70;;;;;;5002090;28;20495;-82
2022/04/10 01:36:28;;;;;;;1.97;0.93;;;21.90;51.70;;;;;;4997743;28;20431;-82
2022/04/10 01:38:56;;;;;;;1.03;0.80;;;22.00;51.80;;;;;;5014814;28;20511;-82
2022/04/10 01:41:24;;;;;;;1.20;0.70;;;21.90;51.70;;;;;;4997396;28;20436;-82
2022/04/10 01:43:51;;;;;;;1.20;0.93;;;22.00;51.80;;;;;;5000495;28;20444;-82
2022/04/10 01:46:17;;;;;;;1.10;0.80;;;21.90;51.70;;;;;;5005881;28;20424;-82
2022/04/10 01:48:43;;;;;;;1.40;0.80;;;21.90;51.60;;;;;;5001902;28;20464;-82
2022/04/10 01:51:09;;;;;;;0.93;0.70;;;21.90;51.60;;;;;;4998798;28;20229;-82
2022/04/10 01:53:35;;;;;;;1.50;0.73;;;22.00;51.80;;;;;;4998900;28;20415;-82
2022/04/10 01:56:03;;;;;;;1.00;0.70;;;21.90;51.60;;;;;;5007759;28;20169;-81
2022/04/10 01:58:30;;;;;;;1.47;0.80;;;21.90;51.60;;;;;;5001229;28;20444;-82
2022/04/10 02:00:56;;;;;;;0.87;0.70;;;21.90;51.70;;;;;;5009817;28;20430;-82
2022/04/10 02:03:22;;;;;;;1.17;0.80;;;21.90;51.60;;;;;;5011261;28;20463;-82
2022/04/10 02:05:47;;;;;;;1.33;0.97;;;21.90;51.60;;;;;;5010691;28;20216;-82
2022/04/10 02:08:13;;;;;;;0.97;0.80;;;22.00;51.70;;;;;;5009997;28;20460;-82
2022/04/10 02:10:39;;;;;;;1.30;0.80;;;21.90;51.60;;;;;;5006078;28;20177;-82
2022/04/10 02:13:07;;;;;;;1.10;0.80;;;21.90;51.60;;;;;;5010632;28;20627;-82
2022/04/10 02:15:36;;;;;;;1.33;0.90;;;21.90;51.60;;;;;;5011072;28;20432;-81
2022/04/10 02:18:03;;;;;;;1.13;0.87;;;21.90;51.60;;;;;;5011309;28;20420;-82
2022/04/10 02:20:29;;;;;;;0.90;0.70;;;21.90;51.60;;;;;;5010031;28;20491;-82
2022/04/10 02:22:55;;;;;;;1.10;0.90;;;21.90;51.60;;;;;;5010904;28;20423;-81
2022/04/10 02:25:20;;;;;;;0.90;0.73;;;21.90;51.60;;;;;;5011644;28;20177;-81
2022/04/10 02:27:46;;;;;;;1.33;1.00;;;21.90;51.60;;;;;;5012313;28;20277;-81
2022/04/10 02:30:12;;;;;;;1.10;0.80;;;21.90;51.60;;;;;;5011682;28;20177;-81
2022/04/10 02:32:39;;;;;;;1.03;0.70;;;21.90;51.60;;;;;;5010543;28;20420;-81
2022/04/10 02:35:05;;;;;;;1.00;0.80;;;21.90;51.60;;;;;;5012124;28;20514;-81
2022/04/10 02:37:31;;;;;;;1.43;0.80;;;21.90;51.60;;;;;;5010147;28;20432;-82
2022/04/10 02:39:57;;;;;;;1.03;0.80;;;21.90;51.60;;;;;;5010895;28;21029;-82
2022/04/10 02:42:23;;;;;;;1.57;0.90;;;21.90;51.60;;;;;;4993888;28;20212;-82
2022/04/10 02:44:48;;;;;;;1.00;0.70;;;21.90;51.60;;;;;;5010519;28;20227;-82
2022/04/10 02:47:20;;;;;;;1.20;0.80;;;21.90;51.60;;;;;;5011614;28;20173;-82
2022/04/10 02:49:47;;;;;;;3.40;0.90;;;21.90;51.60;;;;;;5012245;28;20173;-82
2022/04/10 02:52:12;;;;;;;1.37;1.03;;;21.90;51.60;;;;;;5010485;28;20436;-82
2022/04/10 02:54:38;;;;;;;1.40;0.77;;;21.90;51.70;;;;;;5011995;28;20454;-82
2022/04/10 02:57:07;;;;;;;1.00;0.80;;;21.90;51.60;;;;;;5010765;28;20185;-82
2022/04/10 02:59:34;;;;;;;0.90;0.70;;;21.90;51.60;;;;;;5009904;28;20200;-82
2022/04/10 03:01:59;;;;;;;1.10;0.80;;;21.90;51.70;;;;;;5010525;28;20427;-82
2022/04/10 03:04:25;;;;;;;0.90;0.70;;;21.90;51.60;;;;;;5011693;28;20922;-82
2022/04/10 03:06:51;;;;;;;1.10;0.80;;;21.90;51.60;;;;;;5011799;28;20169;-82
2022/04/10 03:09:17;;;;;;;0.90;0.70;;;21.90;51.60;;;;;;5012286;28;20196;-82
2022/04/10 03:11:43;;;;;;;1.50;1.23;;;21.90;51.60;;;;;;5010292;28;20428;-82
2022/04/10 03:14:10;;;;;;;0.93;0.80;;;21.90;51.60;;;;;;5012406;28;20427;-82
2022/04/10 03:16:36;;;;;;;1.17;0.80;;;21.90;51.60;;;;;;4994099;28;20248;-82
2022/04/10 03:19:02;;;;;;;1.00;0.73;;;21.90;51.60;;;;;;5010332;28;20500;-82
2022/04/10 03:21:28;;;;;;;1.03;0.70;;;21.80;51.60;;;;;;5010679;28;20188;-82
2022/04/10 03:23:54;;;;;;;1.20;0.80;;;21.80;51.60;;;;;;5011956;28;20416;-82
2022/04/10 03:26:20;;;;;;;1.60;1.00;;;21.90;51.70;;;;;;5010026;28;20260;-82
2022/04/10 03:28:46;;;;;;;1.20;0.70;;;21.80;51.60;;;;;;5011098;28;20460;-82
2022/04/10 03:31:12;;;;;;;1.10;0.80;;;21.80;51.60;;;;;;5011110;28;20308;-82
2022/04/10 03:33:37;;;;;;;1.67;0.80;;;21.80;51.60;;;;;;5009225;28;20235;-82
2022/04/10 03:36:04;;;;;;;0.80;0.70;;;21.80;51.60;;;;;;5007998;28;20253;-82
2022/04/10 03:38:29;;;;;;;0.90;0.60;;;21.80;51.60;;;;;;5008643;28;20189;-82
2022/04/10 03:40:55;;;;;;;1.63;0.90;;;21.80;51.60;;;;;;5010112;28;20455;-82
2022/04/10 03:43:21;;;;;;;1.00;0.60;;;21.80;51.60;;;;;;5008246;28;20224;-82
2022/04/10 03:45:47;;;;;;;0.90;0.63;;;21.80;51.60;;;;;;5009504;28;20253;-82
2022/04/10 03:48:13;;;;;;;1.70;1.60;;;21.80;51.60;;;;;;5009408;28;20286;-82
2022/04/10 03:50:38;;;;;;;1.57;0.83;;;21.80;51.60;;;;;;5007494;28;20177;-82
2022/04/10 03:53:04;;;;;;;1.33;0.70;;;21.80;51.60;;;;;;5009082;28;20184;-82
2022/04/10 03:55:31;;;;;;;1.57;1.00;;;21.80;51.60;;;;;;5010834;28;20192;-82
2022/04/10 03:57:57;;;;;;;1.00;0.87;;;21.80;51.60;;;;;;5010889;28;20415;-82
2022/04/10 04:00:22;;;;;;;1.00;0.77;;;21.80;51.60;;;;;;5002813;28;20476;-82
2022/04/10 04:02:48;;;;;;;1.40;0.70;;;21.80;51.60;;;;;;4991018;28;20178;-82
2022/04/10 04:05:14;;;;;;;0.87;0.60;;;21.80;51.60;;;;;;4991656;28;20212;-82
2022/04/10 04:11:02;;;;;;;1.80;0.90;;;21.80;51.60;;;;;;4991709;28;20396;-82
2022/04/10 04:13:28;;;;;;;1.00;0.70;;;21.70;51.50;;;;;;5005847;28;20421;-82
2022/04/10 04:15:54;;;;;;;1.00;0.70;;;21.70;51.60;;;;;;4991368;28;20182;-82
2022/04/10 04:18:19;;;;;;;0.90;0.70;;;21.70;51.50;;;;;;5006927;28;20181;-82
2022/04/10 04:20:45;;;;;;;1.83;0.90;;;21.70;51.60;;;;;;4990867;28;20209;-82
2022/04/10 04:23:11;;;;;;;1.10;0.87;;;21.70;51.60;;;;;;4990989;28;20197;-82
2022/04/10 04:25:37;;;;;;;1.23;0.80;;;21.70;51.60;;;;;;4990096;28;20190;-82
2022/04/10 04:28:03;;;;;;;1.20;0.80;;;21.70;51.60;;;;;;4991396;28;20213;-82
2022/04/10 04:30:28;;;;;;;0.90;0.70;;;21.70;51.60;;;;;;4990210;28;20397;-82
2022/04/10 04:32:56;;;;;;;1.37;1.03;;;21.70;51.60;;;;;;4990485;28;20468;-82
2022/04/10 04:35:22;;;;;;;1.10;0.97;;;21.70;51.60;;;;;;4990810;28;20162;-82
2022/04/10 04:37:47;;;;;;;1.00;0.70;;;21.70;51.60;;;;;;5004181;28;20447;-82
2022/04/10 04:40:15;;;;;;;1.97;0.83;;;21.70;51.60;;;;;;5010300;28;20189;-82
2022/04/10 04:42:41;;;;;;;0.90;0.70;;;21.70;51.60;;;;;;5009104;28;20201;-82
2022/04/10 04:45:08;;;;;;;1.00;0.80;;;21.70;52.10;;;;;;5025527;28;20471;-82
2022/04/10 04:47:34;;;;;;;1.03;0.70;;;21.70;51.60;;;;;;5010665;28;20412;-82
2022/04/10 04:49:59;;;;;;;0.90;0.80;;;21.70;51.60;;;;;;5009371;28;20428;-82
2022/04/10 04:52:25;;;;;;;1.47;0.93;;;21.70;51.60;;;;;;5009990;28;20169;-82
2022/04/10 04:54:51;;;;;;;1.10;0.80;;;21.70;51.60;;;;;;5025082;28;20181;-82
2022/04/10 04:57:16;;;;;;;1.27;1.00;;;21.70;51.60;;;;;;5010012;28;20200;-82
2022/04/10 04:59:42;;;;;;;1.00;0.70;;;21.70;51.60;;;;;;5009965;28;20209;-82
2022/04/10 05:02:08;;;;;;;0.83;0.77;;;21.70;51.60;;;;;;5008894;28;20177;-82
2022/04/10 05:04:34;;;;;;;0.90;0.60;;;21.70;51.60;;;;;;5008939;28;20177;-83
2022/04/10 05:07:00;;;;;;;1.00;0.60;;;21.70;51.60;;;;;;5008824;28;20424;-82
2022/04/10 05:09:25;;;;;;;1.60;1.10;;;21.70;51.60;;;;;;5025187;28;20208;-82
2022/04/10 05:11:51;;;;;;;1.10;0.93;;;21.70;51.60;;;;;;5009295;28;20173;-82
2022/04/10 05:14:19;;;;;;;1.10;0.70;;;21.70;51.60;;;;;;5024777;28;20181;-82
2022/04/10 05:16:44;;;;;;;0.97;0.70;;;21.70;51.60;;;;;;5008595;28;20188;-82
2022/04/10 05:19:10;;;;;;;0.90;0.70;;;21.70;51.60;;;;;;5008572;28;20424;-82
2022/04/10 05:21:36;;;;;;;1.83;0.77;;;21.70;52.20;;;;;;5009245;28;20219;-82
2022/04/10 05:24:01;;;;;;;0.93;0.70;;;21.70;51.60;;;;;;5025928;28;20188;-82
2022/04/10 05:26:29;;;;;;;0.93;0.70;;;21.70;51.60;;;;;;5008961;28;20177;-83
2022/04/10 05:28:55;;;;;;;1.10;0.70;;;21.70;51.60;;;;;;5009069;28;20216;-82
2022/04/10 05:31:20;;;;;;;1.50;0.70;;;21.70;51.60;;;;;;5008431;28;20423;-82
2022/04/10 05:33:46;;;;;;;0.97;0.70;;;21.70;51.60;;;;;;5008417;28;20315;-82
2022/04/10 05:36:12;;;;;;;1.20;0.70;;;21.80;51.70;;;;;;5008702;28;20173;-82
2022/04/10 05:38:37;;;;;;;1.03;0.73;;;21.70;51.60;;;;;;5008696;28;20181;-82
2022/04/10 05:41:27;;;;;;;0.90;0.60;;;21.70;51.60;;;;;;5008378;28;20624;-82
2022/04/10 05:43:53;;;;;;;1.00;0.70;;;21.80;51.70;;;;;;5008044;28;20216;-82
2022/04/10 05:46:55;;;;;;;1.10;0.70;;;21.80;51.70;;;;;;5007842;28;20443;-82
2022/04/10 05:49:21;;;;;;;1.00;0.80;;;21.80;51.70;;;;;;5025539;28;20199;-82
2022/04/10 05:51:47;;;;;;;0.90;0.60;;;21.70;51.60;;;;;;5009123;28;20420;-82
2022/04/10 05:54:14;;;;;;;0.90;0.70;;;21.70;51.60;;;;;;5009782;28;20200;-82
2022/04/10 05:56:40;;;;;;;1.30;0.60;;;21.70;51.60;;;;;;5008795;28;20449;-82
2022/04/10 05:59:05;;;;;;;1.10;0.90;;;21.70;51.60;;;;;;5008830;28;20416;-82
2022/04/10 06:01:31;;;;;;;1.57;0.83;;;21.80;51.70;;;;;;5009631;28;20173;-82
2022/04/10 06:03:57;;;;;;;1.30;1.00;;;21.80;51.70;;;;;;5008598;28;20184;-82
2022/04/10 06:06:22;;;;;;;0.90;0.60;;;21.80;51.70;;;;;;5010066;28;20235;-82
2022/04/10 06:08:48;;;;;;;1.00;0.63;;;21.80;51.70;;;;;;5008293;28;20204;-82
2022/04/10 06:11:14;;;;;;;1.30;0.73;;;21.80;51.70;;;;;;5009865;28;20189;-82
2022/04/10 06:13:40;;;;;;;0.93;0.70;;;21.80;51.70;;;;;;5010049;28;20184;-82
2022/04/10 06:16:05;;;;;;;1.10;0.90;;;21.80;51.70;;;;;;5009011;28;20188;-83
2022/04/10 06:18:31;;;;;;;1.00;0.70;;;21.80;51.70;;;;;;5023646;28;20618;-81
2022/04/10 06:20:57;;;;;;;0.90;0.67;;;21.80;51.70;;;;;;5008477;28;20181;-82
2022/04/10 06:23:23;;;;;;;0.90;0.60;;;21.80;51.60;;;;;;5008751;28;20173;-82
2022/04/10 06:25:49;;;;;;;1.00;0.70;;;21.80;51.70;;;;;;5009302;28;20173;-82
2022/04/10 06:28:15;;;;;;;1.03;0.70;;;21.80;51.60;;;;;;5008091;28;20455;-82
2022/04/10 06:30:43;;;;;;;0.83;0.63;;;21.80;51.60;;;;;;5009512;28;20416;-81
2022/04/10 06:33:09;;;;;;;0.90;0.70;;;21.80;51.60;;;;;;5024438;28;20161;-81
2022/04/10 06:35:35;;;;;;;0.90;0.63;;;21.80;51.60;;;;;;5007390;28;20561;-81
2022/04/10 06:38:01;;;;;;;0.90;0.60;;;21.80;51.70;;;;;;5007592;28;20185;-82
2022/04/10 06:40:27;;;;;;;0.90;0.70;;;21.80;51.60;;;;;;5009252;28;20463;-82
2022/04/10 06:42:53;;;;;;;0.90;0.60;;;21.80;51.60;;;;;;5010913;28;20869;-81
2022/04/10 06:45:19;;;;;;;1.43;1.17;;;21.80;51.60;;;;;;5011335;28;20412;-80
2022/04/10 06:47:46;;;;;;;1.00;0.77;;;21.80;51.60;;;;;;5012593;28;20205;-82
2022/04/10 06:50:12;;;;;;;1.00;0.60;;;21.80;51.60;;;;;;5012330;28;20422;-81
2022/04/10 06:52:38;;;;;;;1.00;0.77;;;21.80;51.60;;;;;;5013446;28;20440;-82
2022/04/10 06:58:26;;;;;;;0.90;0.70;;;21.90;51.70;;;;;;5013277;28;20396;-82
2022/04/10 07:00:53;;;;;;;0.80;0.60;;;21.80;51.70;;;;;;5012236;28;20407;-81
2022/04/10 07:03:19;;;;;;;1.10;0.70;;;21.80;51.70;;;;;;5011001;28;20608;-82
2022/04/10 07:05:45;;;;;;;1.10;0.73;;;21.80;51.70;;;;;;5010336;28;20419;-81
2022/04/10 07:08:14;;;;;;;0.90;0.80;;;21.90;51.70;;;;;;5011162;28;20201;-81
2022/04/10 07:10:39;;;;;;;1.20;0.77;;;21.90;51.70;;;;;;5011803;28;20445;-81
2022/04/10 07:13:05;;;;;;;1.33;0.70;;;21.90;51.70;;;;;;5012266;28;20404;-81
2022/04/10 07:15:31;;;;;;;1.03;0.70;;;21.90;51.70;;;;;;5011629;28;20181;-81
2022/04/10 07:17:58;;;;;;;1.07;0.70;;;21.90;51.70;;;;;;5009748;28;20451;-82
2022/04/10 07:20:25;;;;;;;1.17;0.73;;;21.90;51.70;;;;;;5011115;28;20589;-81
2022/04/10 07:25:36;;;;;;;1.40;1.00;;;21.90;51.70;;;;;;5013355;28;20411;-81
2022/04/10 07:28:02;;;;;;;0.90;0.70;;;21.90;51.70;;;;;;5012316;28;20508;-81
2022/04/10 07:30:29;;;;;;;1.20;0.93;;;21.90;51.70;;;;;;5011809;28;20204;-81
2022/04/10 07:32:57;;;;;;;1.00;0.70;;;21.90;51.70;;;;;;5011966;28;20424;-81
2022/04/10 07:35:24;;;;;;;0.90;0.80;;;21.90;51.70;;;;;;5011209;28;20423;-81
2022/04/10 07:37:51;;;;;;;0.90;0.70;;;21.90;51.60;;;;;;5012122;28;20427;-81
2022/04/10 07:40:19;;;;;;;1.27;0.90;;;21.90;51.60;;;;;;5012798;28;20435;-81
2022/04/10 07:42:45;;;;;;;0.90;0.70;;;21.90;51.60;;;;;;5011312;28;20439;-81
2022/04/10 07:47:59;;;;;;;1.00;0.80;;;21.90;51.60;;;;;;5011751;28;20479;-81
2022/04/10 07:50:26;;;;;;;2.17;0.70;;;21.90;51.60;;;;;;5011782;28;20897;-81
2022/04/10 07:52:52;;;;;;;0.90;0.70;;;21.90;51.60;;;;;;5011712;28;20424;-81
2022/04/10 07:55:18;;;;;;;1.60;0.93;;;21.90;51.70;;;;;;5011485;28;20419;-81
2022/04/10 07:57:44;;;;;;;1.40;0.90;;;21.90;51.70;;;;;;5012142;28;20511;-82
2022/04/10 08:00:11;;;;;;;1.63;1.10;;;21.90;51.70;;;;;;5015186;28;20413;-83
2022/04/10 08:02:43;;;;;;;1.17;1.00;;;21.90;51.70;;;;;;5015690;28;20424;-83
2022/04/10 08:05:09;;;;;;;1.07;0.83;;;21.90;51.70;;;;;;5015427;28;20419;-82
2022/04/10 08:07:34;;;;;;;0.90;0.73;;;21.90;51.70;;;;;;5013819;28;20491;-85
2022/04/10 08:10:00;;;;;;;1.00;0.90;;;21.90;51.70;;;;;;5013955;28;20424;-83
2022/04/10 08:12:28;;;;;;;1.37;1.03;;;21.90;51.70;;;;;;5014023;28;20193;-82
2022/04/10 08:14:53;;;;;;;1.00;0.90;;;21.90;51.70;;;;;;5031661;28;20965;-83
2022/04/10 08:17:20;;;;;;;1.37;1.00;;;21.90;51.70;;;;;;5014512;28;20177;-83
2022/04/10 08:19:46;;;;;;;1.00;0.90;;;21.90;51.70;;;;;;5015718;28;20181;-82
2022/04/10 08:22:13;;;;;;;1.50;1.00;;;21.90;51.70;;;;;;5014470;28;20463;-82
2022/04/10 08:24:38;;;;;;;1.40;0.90;;;21.90;51.70;;;;;;4997559;28;20450;-82
2022/04/10 08:27:05;;;;;;;2.50;1.10;;;21.90;51.70;;;;;;5011856;28;20436;-82
2022/04/10 08:29:31;;;;;;;1.63;1.10;;;21.90;51.70;;;;;;5012182;28;20204;-82
2022/04/10 08:31:57;;;;;;;1.90;1.20;;;21.90;51.70;;;;;;5004431;28;20472;-83
2022/04/10 08:34:22;;;;;;;1.60;1.10;;;21.90;51.70;;;;;;4993126;28;20193;-83
2022/04/10 08:36:49;;;;;;;1.07;0.83;;;21.90;51.70;;;;;;4992450;28;20178;-82
2022/04/10 08:39:16;;;;;;;1.17;0.90;;;22.00;51.80;;;;;;4995465;28;20401;-83
2022/04/10 08:41:43;;;;;;;1.10;0.80;;;21.90;51.70;;;;;;4994117;28;20417;-83
2022/04/10 08:44:11;;;;;;;1.20;0.83;;;21.90;51.70;;;;;;5008791;28;20525;-83
2022/04/10 08:46:46;;;;;;;1.10;0.80;;;21.90;51.70;;;;;;4995433;28;20420;-82
2022/04/10 08:49:25;;;;;;;1.10;0.93;;;21.90;51.70;;;;;;4995220;28;20468;-83
2022/04/10 08:51:56;;;;;;;1.40;1.10;;;22.00;51.80;;;;;;4995141;28;20412;-83
2022/04/10 08:54:24;;;;;;;1.20;0.80;;;21.90;51.60;;;;;;4995807;28;20410;-83
2022/04/10 08:56:50;;;;;;;2.10;1.00;;;21.90;51.60;;;;;;5014811;28;20412;-84
2022/04/10 08:59:20;;;;;;;1.80;1.40;;;21.90;51.60;;;;;;5012549;28;20416;-85
2022/04/10 09:01:53;;;;;;;1.10;0.90;;;21.90;51.60;;;;;;5013335;28;20413;-83
2022/04/10 09:04:20;;;;;;;1.47;0.90;;;21.90;51.60;;;;;;5014296;28;20400;-83
2022/04/10 09:06:58;;;;;;;1.27;1.00;;;21.90;51.50;;;;;;5013666;28;20416;-84
2022/04/10 09:09:25;;;;;;;1.33;0.80;;;21.90;51.40;;;;;;4997349;28;20475;-83
2022/04/10 09:11:54;;;;;;;1.00;0.87;;;21.90;51.40;;;;;;5012911;28;20416;-83
2022/04/10 09:14:26;;;;;;;1.47;1.13;;;21.90;51.40;;;;;;5012555;28;20480;-83
2022/04/10 09:17:24;;;;;;;1.73;0.93;;;21.90;51.40;;;;;;5013476;28;20397;-83
2022/04/10 09:19:53;;;;;;;1.90;0.90;;;21.90;51.30;;;;;;5013900;28;20396;-83
2022/04/10 09:22:26;;;;;;;1.97;1.00;;;21.90;51.30;;;;;;5013303;28;20438;-83
2022/04/10 09:25:07;;;;;;;1.40;1.00;;;21.90;51.30;;;;;;5015401;28;20408;-83
2022/04/10 09:27:35;;;;;;;1.63;1.03;;;21.90;51.40;;;;;;5014966;28;20423;-82
2022/04/10 09:30:01;;;;;;;1.67;1.10;;;21.80;51.30;;;;;;5014006;28;20451;-82
2022/04/10 09:32:52;;;;;;;1.63;1.40;;;21.80;51.30;;;;;;5000221;28;20452;-83
2022/04/10 09:35:22;;;;;;;1.93;1.10;;;21.90;51.40;;;;;;5010542;28;20417;-84
2022/04/10 09:37:53;;;;;;;1.20;1.00;;;21.80;51.40;;;;;;4994357;28;20435;-83
2022/04/10 09:40:31;;;;;;;1.20;1.00;;;21.80;51.40;;;;;;4994412;28;20986;-83
2022/04/10 09:43:05;;;;;;;1.60;1.13;;;21.80;51.40;;;;;;4994742;28;20422;-83
2022/04/10 09:45:41;;;;;;;1.60;1.10;;;21.80;51.40;;;;;;4994999;28;20431;-83
2022/04/10 09:48:22;;;;;;;1.27;0.80;;;21.80;51.40;;;;;;4994684;28;20503;-82
2022/04/10 09:50:57;;;;;;;2.23;1.00;;;21.90;51.50;;;;;;4994356;28;20432;-83
2022/04/10 09:53:23;;;;;;;1.63;1.00;;;21.80;51.40;;;;;;4994229;28;20424;-83
2022/04/10 09:55:54;;;;;;;1.00;0.80;;;21.80;51.40;;;;;;4993578;28;20421;-82
2022/04/10 09:58:21;;;;;;;1.40;0.90;;;21.90;51.50;;;;;;4993642;28;20420;-82
2022/04/10 10:00:49;;;;;;;1.30;1.20;;;21.80;51.40;;;;;;4994437;28;20424;-82
2022/04/10 10:03:16;;;;;;;1.50;1.17;;;21.90;51.50;;;;;;4994147;28;20417;-82
2022/04/10 10:05:45;;;;;;;2.03;1.50;;;21.90;51.50;;;;;;4993973;28;20429;-82
2022/04/10 10:08:13;;;;;;;3.20;1.20;;;21.90;51.50;;;;;;4993649;28;20500;-83
2022/04/10 10:10:40;;;;;;;1.20;1.03;;;21.90;51.50;;;;;;5010522;28;20390;-82
2022/04/10 10:13:07;;;;;;;1.50;1.30;;;21.90;51.50;;;;;;5013194;28;20421;-82
2022/04/10 10:15:36;;;;;;;1.20;1.10;;;21.90;51.50;;;;;;4998259;28;20425;-83
2022/04/10 10:18:05;;;;;;;2.43;1.13;;;21.90;51.50;;;;;;4997258;28;20432;-82
2022/04/10 10:20:32;;;;;;;1.60;1.30;;;21.90;51.50;;;;;;4997980;28;20433;-82
2022/04/10 10:23:03;;;;;;;2.20;1.50;;;21.90;51.50;;;;;;4998581;28;20425;-82
2022/04/10 10:26:08;;;;;;;1.50;1.00;;;21.90;51.50;;;;;;5013771;28;20408;-83
2022/04/10 10:29:10;;;;;;;1.40;0.90;;;21.90;51.50;;;;;;4942017;29;20564;-82
2022/04/10 10:32:05;;;;;;;1.27;0.83;;;21.90;51.50;;;;;;4944156;29;20495;-84
2022/04/10 10:34:35;;;;;;;1.20;0.87;;;21.90;51.60;;;;;;4958513;29;20442;-84
2022/04/10 10:37:02;;;;;;;1.40;1.27;;;21.90;51.60;;;;;;4957685;29;20444;-83
2022/04/10 10:39:50;;;;;;;1.20;1.10;;;21.90;51.60;;;;;;4958483;29;20423;-83
2022/04/10 10:42:16;;;;;;;1.93;1.27;;;21.90;51.60;;;;;;4944800;29;20437;-87
2022/04/10 10:44:48;;;;;;;2.10;1.10;;;21.90;51.60;;;;;;4957832;29;20482;-81
2022/04/10 10:47:31;;;;;;;1.53;1.00;;;21.90;52.10;;;;;;4925946;29;20233;-83
2022/04/10 10:49:57;;;;;;;1.40;1.00;;;21.90;52.10;;;;;;4941685;29;20450;-83
2022/04/10 10:52:25;;;;;;;1.30;1.20;;;21.90;51.60;;;;;;4957526;29;20439;-82
2022/04/10 10:54:58;;;;;;;1.60;1.20;;;21.90;51.60;;;;;;4958059;29;20434;-83
2022/04/10 10:57:41;;;;;;;2.07;1.10;;;21.90;51.60;;;;;;4956989;29;20439;-85
2022/04/10 11:00:22;;;;;;;1.87;1.27;;;21.90;51.60;;;;;;4960041;29;20426;-82
2022/04/10 11:02:55;;;;;;;1.93;1.00;;;21.90;51.60;;;;;;4945879;29;20499;-82
2022/04/10 11:05:35;;;;;;;1.20;1.00;;;21.90;51.60;;;;;;4965460;28;20798;-81
2022/04/10 11:08:36;;;;;;;2.63;0.93;;;21.90;51.60;;;;;;5015239;28;20531;-86
2022/04/10 11:11:07;;;;;;;1.60;1.00;;;21.90;51.60;;;;;;4997414;28;20452;-84
2022/04/10 11:13:42;;;;;;;1.20;0.97;;;21.90;51.60;;;;;;4999808;28;20427;-84
2022/04/10 11:16:13;;;;;;;2.40;1.13;;;21.90;51.60;;;;;;5016594;28;20431;-84
2022/04/10 11:18:44;;;;;;;1.40;1.20;;;21.90;51.60;;;;;;5016526;28;20444;-85
2022/04/10 11:21:14;;;;;;;1.30;1.00;;;21.90;51.70;;;;;;4999330;28;20505;-81
2022/04/10 11:23:45;;;;;;;1.27;0.97;;;21.90;51.60;;;;;;4999940;28;20412;-84
2022/04/10 11:26:21;;;;;;;1.80;1.10;;;21.90;51.60;;;;;;4998384;28;20487;-83
2022/04/10 11:29:00;;;;;;;1.87;1.33;;;21.90;51.60;;;;;;5013438;28;21140;-84
2022/04/10 11:32:02;;;;;;;1.30;0.93;;;21.90;51.60;;;;;;4998852;28;20420;-84
2022/04/10 11:34:30;;;;;;;1.60;1.20;;;21.90;51.60;;;;;;4981812;28;20416;-88
2022/04/10 11:37:03;;;;;;;1.00;0.80;;;21.90;51.60;;;;;;5012018;28;20447;-83
2022/04/10 11:39:35;;;;;;;2.00;1.20;;;21.90;51.60;;;;;;5014940;28;20413;-83
2022/04/10 11:42:08;;;;;;;2.17;1.37;;;21.90;51.60;;;;;;4996366;28;20428;-82
2022/04/10 11:44:35;;;;;;;3.43;1.10;;;21.90;51.60;;;;;;5013341;28;20440;-83
2022/04/10 11:47:08;;;;;;;1.40;1.13;;;21.90;51.60;;;;;;5015257;28;20412;-83
2022/04/10 11:49:37;;;;;;;1.50;1.00;;;21.90;51.60;;;;;;5015742;28;20452;-82
2022/04/10 11:52:09;;;;;;;1.20;1.00;;;21.90;51.60;;;;;;5016284;28;20416;-83
2022/04/10 11:54:39;;;;;;;1.97;1.30;;;21.90;51.60;;;;;;5000468;28;20435;-84
2022/04/10 11:57:08;;;;;;;4.80;1.17;;;21.90;51.60;;;;;;5017351;28;20468;-83
2022/04/10 11:59:43;;;;;;;1.30;1.10;;;21.90;51.60;;;;;;5016196;28;20426;-83
2022/04/10 12:02:10;;;;;;;1.20;0.90;;;21.90;51.60;;;;;;5015725;28;20527;-84
2022/04/10 12:04:44;;;;;;;1.20;1.00;;;21.90;51.60;;;;;;5017009;28;20451;-84
2022/04/10 12:07:28;;;;;;;1.80;1.20;;;21.90;51.60;;;;;;4999929;28;20389;-83
2022/04/10 12:09:55;;;;;;;1.50;1.13;;;21.90;51.60;;;;;;5015378;28;20466;-83
2022/04/10 12:12:41;;;;;;;3.37;1.10;;;21.90;51.60;;;;;;5016639;28;20416;-82
2022/04/10 12:15:16;;;;;;;1.63;1.13;;;21.90;51.60;;;;;;5015497;28;20451;-82
2022/04/10 12:17:42;;;;;;;1.73;1.20;;;21.90;51.60;;;;;;4999795;28;20442;-82
2022/04/10 12:20:09;;;;;;;2.33;1.20;;;21.80;51.50;;;;;;5012241;28;20428;-82
2022/04/10 12:22:34;;;;;;;1.93;1.40;;;21.90;51.60;;;;;;5013296;28;20528;-83
2022/04/10 12:25:01;;;;;;;1.40;1.00;;;21.90;51.60;;;;;;5014971;28;20432;-83
2022/04/10 12:27:44;;;;;;;1.20;0.97;;;21.90;51.60;;;;;;5013566;28;20181;-84
2022/04/10 12:30:13;;;;;;;2.20;1.30;;;21.90;51.60;;;;;;5013985;28;20416;-84
2022/04/10 12:32:40;;;;;;;1.37;1.10;;;21.90;51.60;;;;;;5014241;28;20396;-83
2022/04/10 12:35:08;;;;;;;1.73;1.17;;;21.90;51.60;;;;;;5011741;28;20411;-83
2022/04/10 12:37:36;;;;;;;1.30;1.00;;;21.90;51.60;;;;;;5013806;28;20420;-84
2022/04/10 12:40:04;;;;;;;1.60;1.30;;;21.90;51.60;;;;;;5015486;28;20393;-84
2022/04/10 12:42:41;;;;;;;2.00;1.40;;;21.90;51.60;;;;;;4998341;28;20455;-83
2022/04/10 12:45:10;;;;;;;1.40;1.10;;;21.90;51.60;;;;;;5014663;28;20431;-83
2022/04/10 12:47:47;;;;;;;2.23;1.17;;;21.90;51.60;;;;;;5014373;28;20404;-83
2022/04/10 12:50:19;;;;;;;1.70;1.20;;;21.90;51.60;;;;;;5015310;28;20451;-83
2022/04/10 12:52:47;;;;;;;2.50;1.60;;;21.90;51.60;;;;;;5016506;28;20412;-84
2022/04/10 12:55:24;;;;;;;2.17;1.50;;;21.90;51.60;;;;;;5015647;28;20416;-83
2022/04/10 12:58:03;;;;;;;5.13;1.20;;;21.90;51.60;;;;;;5015517;28;20404;-83
2022/04/10 13:00:38;;;;;;;1.67;1.20;;;21.90;51.60;;;;;;5014642;28;20500;-83
2022/04/10 13:03:24;;;;;;;2.23;1.30;;;21.80;51.60;;;;;;5014953;28;20408;-83
2022/04/10 13:06:05;;;;;;;2.40;1.03;;;21.90;51.70;;;;;;5015011;28;20405;-82
2022/04/10 13:08:38;;;;;;;1.40;1.20;;;21.90;51.70;;;;;;5015377;28;20506;-82
2022/04/10 13:11:11;;;;;;;2.10;1.33;;;21.80;51.60;;;;;;5015269;28;20427;-83
2022/04/10 13:14:06;;;;;;;1.50;1.30;;;21.80;51.60;;;;;;5015482;28;20404;-83